KBRL/BRL METAR and TAF weather

Enter ICAO airport designator
Station Type Date Time Source
KBRL METAR 2018/04/21 20:53 UTC NOAA

KBRL 212053Z AUTO 09011KT 10SM CLR 17/M04 A3026 RMK AO2 SLP247 T01721039 58026


Station Type Date Time Source
KBRL Decoded METAR 2018/04/21 20:53 UTC NOAA

BURLINGTON REGIONAL AIRPORT, IA, United States (KBRL) 40-46N 91-08W 211M
Apr 21, 2018 - 04:53 PM EDT / 2018.04.21 2053 UTC
Wind: from the E (090 degrees) at 13 MPH (11 KT):0
Visibility: 10 mile(s):0
Sky conditions: clear
Temperature: 63.0 F (17.2 C)
Dew Point: 25.0 F (-3.9 C)
Relative Humidity: 23%
Pressure (altimeter): 30.26 in. Hg (1024 hPa)
Pressure tendency: 0.08 inches (2.6 hPa) lower than three hours ago
ob: KBRL 212053Z AUTO 09011KT 10SM CLR 17/M04 A3026 RMK AO2 SLP247 T01721039 58026
cycle: 21

Station Type Date Time Source
KBRL TAF 2018/04/21 21:39 UTC NOAA

TAF
AMD KBRL 212036Z 2121/2218 10013KT P6SM OVC150
FM220000 08009KT P6SM OVC120


Example: see airport list